Station: Central Arnhem Plateau

  Atmospheric Gas Attenuation - ITU Rec 676-11   --------------- db/100km ---------------
Date Time Temp RH % AH g/m3 Dew Point Wind Direction Speed kph Gust kph Barometer mB Rainfall Since 9am 24GHz 47GHz 76GHz 122GHz 134GHz 241GHz
07 07:10 19.7 88 14.94 17.7 9 9 1013.8 0 32.8 34.8 63.2 166.9 177.3 614.8
07 07:00 19.6 88 14.85 17.6 7 9 1011.6 0 32.6 34.6 62.8 165.8 175.9 610.0
07 06:50 19.8 88 15.03 17.8 7 7 1013.5 0 33.0 34.9 63.5 167.8 178.4 618.6
07 06:40 19.9 88 15.12 17.9 7 9 1013.4 0 33.2 35.1 63.9 168.6 179.5 622.4
07 06:30 19.8 88 15.03 17.8 9 11 1011.2 0 33.0 34.8 63.4 167.4 178.1 617.6
07 06:20 19.9 88 15.12 17.9 11 11 1013.1 0 33.2 35.1 63.8 168.6 179.5 622.3
07 06:10 20 88 15.21 18 11 13 1013.1 0 33.3 35.2 64.2 169.5 180.6 626.2
07 06:00 19.9 87 14.95 17.7 9 13 1010.9 0 32.8 34.6 62.9 166.2 176.6 612.5
07 05:50 20 87 15.03 17.8 9 11 1012.9 0 33.0 34.8 63.3 167.2 177.8 616.7
07 05:40 20.1 86 14.95 17.7 7 7 1012.8 0 32.8 34.6 62.9 166.0 176.4 611.7
07 05:30 20.1 87 15.12 17.9 7 11 1010.7 0 33.2 34.9 63.5 167.8 178.7 619.6
07 05:20 20.1 87 15.12 17.9 9 11 1012.7 0 33.1 35.0 63.6 168.1 178.9 620.5
07 05:10 19.7 84 14.26 16.9 7 7 1012.7 0 31.3 33.6 60.1 158.6 167.1 579.3
07 04:50 20.6 84 15.03 17.8 6 7 1012.6 0 32.9 34.6 62.8 165.9 176.4 611.7
07 04:40 20.6 84 15.03 17.8 11 13 1012.5 0 32.9 34.6 62.8 165.9 176.4 611.7
07 04:30 20.5 84 14.95 17.7 11 13 1010.4 0 32.8 34.4 62.4 164.8 175.2 607.4
07 04:20 20.2 84 14.69 17.4 9 11 1012.4 0 32.2 34.1 61.6 162.6 172.3 597.3
07 04:10 19.8 82 14 16.6 7 7 1012.4 0 30.8 33.0 58.8 155.3 163.1 565.2
07 04:00 19.7 78 13.24 15.8 6 7 1010.3 0 29.2 31.7 55.5 146.3 152.1 527.1
07 03:50 19.7 78 13.24 15.8 6 7 1012.4 0 29.2 31.7 55.6 146.6 152.4 527.9
07 03:40 19.6 77 13 15.5 4 6 1012.4 0 28.6 31.4 54.6 144.0 149.2 516.7
07 03:30 20 75 12.96 15.4 6 7 1010.2 0 28.5 31.1 54.0 142.6 147.6 511.3
07 03:20 20.9 74 13.48 16.1 6 7 1012.3 0 29.6 31.7 55.7 147.1 153.4 531.5
07 03:10 21.2 75 13.9 16.6 6 7 1012.4 0 30.5 32.3 57.3 151.3 158.7 550.1
07 03:00 21.2 74 13.71 16.4 7 11 1010.4 0 30.1 31.9 56.4 148.9 155.8 539.9
07 02:50 21.2 74 13.71 16.4 7 9 1012.6 0 30.0 32.0 56.5 149.2 156.0 540.8
07 02:40 21.3 73 13.61 16.3 7 9 1012.7 0 29.8 31.8 56.0 147.8 154.4 535.2
07 02:30 21.2 71 13.16 15.7 9 13 1010.6 0 28.9 31.0 54.1 142.7 148.1 513.2
07 02:20 21.4 69 12.94 15.5 7 9 1012.8 0 28.4 30.6 53.1 140.1 144.9 502.1
07 02:10 21.6 69 13.09 15.7 7 9 1012.8 0 28.7 30.8 53.6 141.4 146.6 508.0
07 02:00 21.9 68 13.12 15.7 11 15 1010.7 0 28.7 30.7 53.4 141.0 146.2 506.7
07 01:50 22 67 13 15.6 11 13 1012.9 0 28.5 30.5 53.0 139.7 144.6 501.2
07 01:40 22.1 66 12.88 15.5 11 15 1013 0 28.2 30.3 52.4 138.2 142.8 494.9
07 01:30 22.1 65 12.69 15.2 11 15 1011 0 27.8 29.9 51.5 135.9 140.0 485.2
07 01:20 22.2 64 12.56 15.1 9 11 1013.1 0 27.5 29.7 51.0 134.5 138.3 479.2
07 01:10 22.4 64 12.71 15.3 11 13 1013.2 0 27.8 29.9 51.5 135.9 140.0 485.0
07 01:00 22.5 63 12.58 15.1 11 15 1011.2 0 27.6 29.6 50.8 134.0 137.9 477.6
07 00:50 22.7 63 12.73 15.3 11 11 1013.4 0 27.9 29.9 51.4 135.6 139.8 484.2
07 00:40 22.8 63 12.8 15.4 11 13 1013.4 0 28.0 29.9 51.6 136.2 140.5 486.9
07 00:30 22.9 62 12.67 15.2 9 13 1011.3 0 27.7 29.6 50.9 134.3 138.4 479.4
07 00:20 23.1 62 12.82 15.4 11 13 1013.4 0 28.0 29.9 51.5 135.9 140.2 485.9
07 00:10 23.1 63 13.02 15.7 9 11 1013.4 0 28.4 30.2 52.3 138.0 142.9 495.3
07 00:00 23.1 63 13.02 15.7 11 15 1011.3 0 28.5 30.1 52.2 137.8 142.7 494.5
06 23:50 23.2 63 13.1 15.8 11 15 1013.5 0 28.6 30.3 52.6 138.8 143.8 498.4
06 23:40 23.2 64 13.3 16 11 13 1013.6 0 29.0 30.6 53.4 141.0 146.5 507.9
06 23:30 23.3 63 13.17 15.9 11 13 1011.5 0 28.8 30.3 52.7 139.1 144.3 500.3
06 23:20 23.4 63 13.25 16 11 13 1013.7 0 28.9 30.5 53.1 140.1 145.5 504.3
06 23:10 23.4 62 13.04 15.7 11 13 1013.8 0 28.5 30.1 52.2 137.8 142.7 494.5
06 23:00 23.5 62 13.11 15.8 9 13 1011.7 0 28.6 30.1 52.4 138.1 143.2 496.3
06 22:50 23.6 62 13.19 15.9 11 13 1013.9 0 28.8 30.3 52.7 139.1 144.3 500.3
06 22:40 23.8 61 13.12 15.8 11 13 1013.8 0 28.6 30.1 52.3 138.0 143.0 495.7
06 22:30 23.8 61 13.12 15.8 9 13 1011.6 0 28.6 30.0 52.2 137.7 142.8 494.9
06 22:20 24 60 13.05 15.8 9 11 1013.7 0 28.4 29.9 51.9 136.8 141.7 491.1
06 22:10 24.1 60 13.13 15.9 11 11 1013.6 0 28.6 30.0 52.1 137.5 142.6 494.2
06 22:00 24.2 59 12.98 15.9 9 13 1011.5 0 28.3 29.7 51.4 135.5 140.2 485.8
06 21:50 24.4 59 13.13 15.9 9 11 1013.6 0 28.6 29.9 51.9 137.0 142.0 492.3
06 21:40 24.5 59 13.2 16 11 13 1013.5 0 28.7 30.0 52.2 137.6 142.7 494.9
06 21:30 24.5 60 13.43 16.2 9 13 1011.2 0 29.2 30.3 53.0 139.8 145.5 504.7
06 21:20 24.3 59 13.06 15.8 9 11 1013.3 0 28.4 29.8 51.7 136.4 141.2 489.6
06 21:10 23.1 57 11.78 14.1 11 13 1013.3 0 25.8 28.2 47.4 124.7 126.5 438.1
06 21:00 23.1 55 11.37 13.6 0 0 1010.9 0 25.0 27.4 45.6 120.2 121.0 418.9
06 20:50 23.1 55 11.37 13.8 0 0 1012.9 0 25.0 27.5 45.7 120.4 121.2 419.5
06 20:40 23.4 54 11.35 13.6 0 0 1012.8 0 24.9 27.4 45.5 119.7 120.5 417.0
06 20:30 23.6 54 11.48 13.8 0 6 1010.6 0 25.2 27.4 45.8 120.5 121.6 421.0
06 20:20 23.6 53 11.27 13.5 0 0 1012.6 0 24.7 27.2 45.0 118.6 119.2 412.4
06 20:10 24 50 10.88 12.9 0 0 1012.5 0 23.9 26.5 43.3 114.0 113.7 393.2
06 20:00 24.2 50 11 13.1 0 0 1010.3 0 24.1 26.5 43.6 114.7 114.7 396.8
06 19:50 24.4 49 10.9 13 0 0 1012.3 0 23.9 26.4 43.2 113.6 113.3 392.1
06 19:40 24.7 48 10.86 13 6 6 1012.1 0 23.8 26.2 42.9 112.8 112.4 388.8
06 19:30 24.9 47 10.76 12.8 6 7 1009.9 0 23.6 25.9 42.3 111.3 110.7 382.9
06 19:20 25.1 46 10.65 12.7 2 6 1011.9 0 23.3 25.8 41.9 110.1 109.3 377.9
06 19:10 25.9 44 10.65 12.7 0 0 1011.8 0 23.3 25.6 41.4 109.0 108.1 374.1
06 19:00 26.7 43 10.88 13.1 6 7 1009.5 0 23.7 25.6 41.8 110.0 109.6 379.3
06 18:50 26.9 42 10.75 12.9 6 7 1011.6 0 23.5 25.4 41.3 108.6 108.0 373.6
06 18:40 27.2 40 10.41 12.4 7 7 1011.5 0 22.7 24.8 39.9 105.0 103.5 358.2
06 18:30 27.6 39 10.38 12.4 6 9 1009.2 0 22.6 24.6 39.5 104.0 102.5 354.5
06 18:20 28 38 10.33 12.4 6 7 1011.3 0 22.5 24.5 39.2 103.2 101.6 351.4
06 18:10 28.3 39 10.78 13 9 9 1011.2 0 23.4 25.1 40.7 107.0 106.4 368.3
06 18:00 28.5 38 10.62 12.8 11 15 1009 0 23.1 24.7 39.9 105.0 104.1 360.2
06 17:50 28.5 39 10.9 13.2 11 13 1011.2 0 23.7 25.2 41.0 107.9 107.5 372.3
06 17:40 28.7 38 10.74 13 13 15 1011.1 0 23.3 24.9 40.3 106.1 105.4 364.8
06 17:30 29 37 10.63 13.2 15 19 1008.9 0 23.1 24.6 39.7 104.5 103.6 358.4
06 17:20 29.3 37 10.8 13.1 15 17 1011.1 0 23.4 24.8 40.2 105.9 105.3 364.6
06 17:10 29.1 37 10.69 12.9 7 7 1011 0 23.2 24.7 40.0 105.1 104.3 361.0
06 17:00 29.3 36 10.51 12.7 11 20 1008.9 0 22.8 24.3 39.1 103.0 101.8 352.3
06 16:50 29.6 38 11.28 13.8 11 15 1011 0 24.4 25.4 41.8 110.0 110.4 382.6
06 16:40 28.8 40 11.37 13.9 7 9 1011.1 0 24.6 25.8 42.5 112.0 112.6 390.1
06 16:30 28.4 39 10.84 13.1 19 26 1008.9 0 23.6 25.0 40.7 107.2 106.8 369.6
06 16:20 29.7 37 11.04 13.5 17 20 1010.9 0 23.9 25.0 40.9 107.6 107.5 372.4
06 16:10 29 36 10.34 12.8 9 13 1010.9 0 22.5 24.2 38.8 102.0 100.4 347.4
06 16:00 28.7 38 10.74 13 15 22 1008.8 0 23.3 24.8 40.2 105.9 105.2 364.2
06 15:50 29.6 38 11.28 13.8 15 17 1010.9 0 24.4 25.4 41.8 110.0 110.4 382.6
06 15:40 29.5 38 11.22 13.7 15 20 1010.9 0 24.3 25.3 41.6 109.6 109.9 380.6
06 15:30 28.8 39 11.08 13.5 17 30 1008.9 0 24.0 25.3 41.4 109.0 109.0 377.6
06 15:20 28.7 39 11.02 13.4 13 17 1011 0 23.9 25.3 41.3 108.8 108.6 376.2
06 15:10 29.3 37 10.8 13.1 20 24 1011 0 23.4 24.8 40.2 105.9 105.3 364.5
06 15:00 29.3 38 11.1 13.5 15 26 1009.1 0 24.1 25.2 41.2 108.5 108.6 376.1
06 14:50 29.2 39 11.33 13.8 11 11 1011.2 0 24.5 25.6 42.2 111.0 111.6 386.6
06 14:40 28.4 43 11.95 14.6 11 13 1011.3 0 25.9 26.7 44.9 118.2 120.2 416.4
06 14:30 28.7 42 11.87 14.5 15 26 1009.3 0 25.7 26.5 44.3 116.8 118.6 410.9

Last Refresh: 07-Aug-2020 07:20:46

Most of the information presented on this site is sourced from the Bureau of Meteorology.  Copyright in all material sourced from the Bureau of Meteorology resides with the Commonwealth of Australia.